sensor_id;sensor_type;location;lat;lon;timestamp;P1;durP1;ratioP1;P2;durP2;ratioP2
15132;SDS011;7667;51.232;17.110;2024-03-23T00:54:19;16.30;;;8.23;;
15132;SDS011;7667;51.232;17.110;2024-03-23T00:56:48;18.10;;;7.47;;
15132;SDS011;7667;51.232;17.110;2024-03-23T00:59:15;11.33;;;7.50;;
15132;SDS011;7667;51.232;17.110;2024-03-23T01:01:43;16.57;;;7.50;;
15132;SDS011;7667;51.232;17.110;2024-03-23T01:04:09;13.00;;;7.17;;
15132;SDS011;7667;51.232;17.110;2024-03-23T01:06:37;13.03;;;7.03;;
15132;SDS011;7667;51.232;17.110;2024-03-23T01:09:04;13.33;;;7.20;;
15132;SDS011;7667;51.232;17.110;2024-03-23T01:11:31;14.10;;;8.00;;
15132;SDS011;7667;51.232;17.110;2024-03-23T01:13:58;12.97;;;7.30;;
15132;SDS011;7667;51.232;17.110;2024-03-23T01:16:25;14.83;;;7.17;;
15132;SDS011;7667;51.232;17.110;2024-03-23T01:18:52;13.43;;;7.23;;
15132;SDS011;7667;51.232;17.110;2024-03-23T01:21:19;15.80;;;7.33;;
15132;SDS011;7667;51.232;17.110;2024-03-23T01:23:47;14.10;;;7.93;;
15132;SDS011;7667;51.232;17.110;2024-03-23T01:26:14;14.00;;;7.00;;
15132;SDS011;7667;51.232;17.110;2024-03-23T01:28:41;18.67;;;10.67;;
15132;SDS011;7667;51.232;17.110;2024-03-23T01:31:08;18.40;;;9.57;;
15132;SDS011;7667;51.232;17.110;2024-03-23T01:33:35;17.13;;;8.13;;
15132;SDS011;7667;51.232;17.110;2024-03-23T01:36:02;14.90;;;8.23;;
15132;SDS011;7667;51.232;17.110;2024-03-23T01:38:30;18.67;;;8.10;;
15132;SDS011;7667;51.232;17.110;2024-03-23T01:40:57;18.70;;;10.17;;
15132;SDS011;7667;51.232;17.110;2024-03-23T01:43:24;18.23;;;11.13;;
15132;SDS011;7667;51.232;17.110;2024-03-23T01:45:51;21.60;;;12.07;;
15132;SDS011;7667;51.232;17.110;2024-03-23T01:48:21;15.70;;;8.13;;
15132;SDS011;7667;51.232;17.110;2024-03-23T01:50:48;20.70;;;11.27;;
15132;SDS011;7667;51.232;17.110;2024-03-23T01:53:15;28.13;;;13.20;;
15132;SDS011;7667;51.232;17.110;2024-03-23T01:55:47;20.80;;;11.43;;
15132;SDS011;7667;51.232;17.110;2024-03-23T01:58:15;18.33;;;9.97;;
15132;SDS011;7667;51.232;17.110;2024-03-23T02:00:42;15.80;;;10.27;;
15132;SDS011;7667;51.232;17.110;2024-03-23T02:03:21;18.07;;;10.40;;
15132;SDS011;7667;51.232;17.110;2024-03-23T02:05:56;15.97;;;10.73;;
15132;SDS011;7667;51.232;17.110;2024-03-23T02:08:24;15.83;;;10.43;;
15132;SDS011;7667;51.232;17.110;2024-03-23T02:10:51;14.43;;;10.17;;
15132;SDS011;7667;51.232;17.110;2024-03-23T02:13:18;17.90;;;11.33;;
15132;SDS011;7667;51.232;17.110;2024-03-23T02:15:45;15.37;;;10.47;;
15132;SDS011;7667;51.232;17.110;2024-03-23T02:18:12;18.40;;;11.07;;
15132;SDS011;7667;51.232;17.110;2024-03-23T02:20:39;17.10;;;10.70;;
15132;SDS011;7667;51.232;17.110;2024-03-23T02:23:12;17.00;;;11.83;;
15132;SDS011;7667;51.232;17.110;2024-03-23T02:25:40;18.47;;;12.57;;
15132;SDS011;7667;51.232;17.110;2024-03-23T02:28:07;17.87;;;12.37;;
15132;SDS011;7667;51.232;17.110;2024-03-23T02:30:34;21.63;;;13.40;;
15132;SDS011;7667;51.232;17.110;2024-03-23T02:33:01;22.27;;;13.70;;
15132;SDS011;7667;51.232;17.110;2024-03-23T02:35:28;22.77;;;14.00;;
15132;SDS011;7667;51.232;17.110;2024-03-23T02:37:55;24.33;;;14.67;;
15132;SDS011;7667;51.232;17.110;2024-03-23T02:40:23;23.43;;;14.27;;
15132;SDS011;7667;51.232;17.110;2024-03-23T02:42:50;23.40;;;14.67;;
15132;SDS011;7667;51.232;17.110;2024-03-23T02:45:17;21.97;;;13.70;;
15132;SDS011;7667;51.232;17.110;2024-03-23T02:47:44;20.03;;;11.67;;
15132;SDS011;7667;51.232;17.110;2024-03-23T02:50:11;17.83;;;10.93;;
15132;SDS011;7667;51.232;17.110;2024-03-23T02:52:40;15.67;;;9.40;;
15132;SDS011;7667;51.232;17.110;2024-03-23T02:55:07;15.57;;;9.90;;
15132;SDS011;7667;51.232;17.110;2024-03-23T02:57:34;14.73;;;9.57;;
15132;SDS011;7667;51.232;17.110;2024-03-23T03:00:01;16.10;;;10.53;;
15132;SDS011;7667;51.232;17.110;2024-03-23T03:02:29;17.70;;;10.67;;
15132;SDS011;7667;51.232;17.110;2024-03-23T03:04:55;21.33;;;12.70;;
15132;SDS011;7667;51.232;17.110;2024-03-23T03:07:22;20.40;;;12.60;;
15132;SDS011;7667;51.232;17.110;2024-03-23T03:09:50;21.20;;;13.67;;
15132;SDS011;7667;51.232;17.110;2024-03-23T03:12:16;22.93;;;14.27;;
15132;SDS011;7667;51.232;17.110;2024-03-23T03:14:43;21.93;;;13.00;;
15132;SDS011;7667;51.232;17.110;2024-03-23T03:17:10;21.40;;;11.63;;
15132;SDS011;7667;51.232;17.110;2024-03-23T03:19:37;17.80;;;11.63;;
15132;SDS011;7667;51.232;17.110;2024-03-23T03:22:04;19.43;;;12.50;;
15132;SDS011;7667;51.232;17.110;2024-03-23T03:24:31;24.93;;;12.47;;
15132;SDS011;7667;51.232;17.110;2024-03-23T03:26:58;20.27;;;12.17;;
15132;SDS011;7667;51.232;17.110;2024-03-23T03:29:25;22.47;;;13.00;;
15132;SDS011;7667;51.232;17.110;2024-03-23T03:31:59;25.20;;;12.60;;
15132;SDS011;7667;51.232;17.110;2024-03-23T03:34:27;33.33;;;14.93;;
15132;SDS011;7667;51.232;17.110;2024-03-23T03:36:54;40.43;;;17.33;;
15132;SDS011;7667;51.232;17.110;2024-03-23T03:39:22;32.30;;;14.47;;
15132;SDS011;7667;51.232;17.110;2024-03-23T03:41:49;34.07;;;16.10;;
15132;SDS011;7667;51.232;17.110;2024-03-23T03:44:16;31.27;;;15.00;;
15132;SDS011;7667;51.232;17.110;2024-03-23T03:46:43;30.63;;;14.83;;
15132;SDS011;7667;51.232;17.110;2024-03-23T03:49:10;32.13;;;15.33;;
15132;SDS011;7667;51.232;17.110;2024-03-23T03:51:37;26.80;;;13.67;;
15132;SDS011;7667;51.232;17.110;2024-03-23T03:54:04;25.20;;;13.63;;
15132;SDS011;7667;51.232;17.110;2024-03-23T03:56:31;24.80;;;13.27;;
15132;SDS011;7667;51.232;17.110;2024-03-23T03:58:58;15.03;;;10.23;;
15132;SDS011;7667;51.232;17.110;2024-03-23T04:01:25;25.93;;;13.60;;
15132;SDS011;7667;51.232;17.110;2024-03-23T04:03:52;15.17;;;9.97;;
15132;SDS011;7667;51.232;17.110;2024-03-23T04:06:20;17.13;;;9.83;;
15132;SDS011;7667;51.232;17.110;2024-03-23T04:08:47;13.73;;;9.37;;
15132;SDS011;7667;51.232;17.110;2024-03-23T04:11:14;14.43;;;9.17;;
15132;SDS011;7667;51.232;17.110;2024-03-23T04:13:41;11.40;;;8.10;;
15132;SDS011;7667;51.232;17.110;2024-03-23T04:16:08;14.17;;;8.70;;
15132;SDS011;7667;51.232;17.110;2024-03-23T04:18:35;13.03;;;8.67;;
15132;SDS011;7667;51.232;17.110;2024-03-23T04:21:02;14.30;;;8.20;;
15132;SDS011;7667;51.232;17.110;2024-03-23T04:23:29;17.03;;;9.27;;
15132;SDS011;7667;51.232;17.110;2024-03-23T04:25:57;14.27;;;9.90;;
15132;SDS011;7667;51.232;17.110;2024-03-23T04:28:29;15.90;;;10.23;;
15132;SDS011;7667;51.232;17.110;2024-03-23T04:30:56;15.87;;;10.97;;
15132;SDS011;7667;51.232;17.110;2024-03-23T04:33:23;18.00;;;10.43;;
15132;SDS011;7667;51.232;17.110;2024-03-23T04:35:50;15.57;;;10.53;;
15132;SDS011;7667;51.232;17.110;2024-03-23T04:38:17;19.80;;;11.03;;
15132;SDS011;7667;51.232;17.110;2024-03-23T04:40:44;17.47;;;10.43;;
15132;SDS011;7667;51.232;17.110;2024-03-23T04:43:10;16.67;;;10.80;;
15132;SDS011;7667;51.232;17.110;2024-03-23T04:45:37;13.73;;;10.57;;
15132;SDS011;7667;51.232;17.110;2024-03-23T04:48:04;16.97;;;11.13;;
15132;SDS011;7667;51.232;17.110;2024-03-23T04:50:31;18.50;;;11.67;;
15132;SDS011;7667;51.232;17.110;2024-03-23T04:52:58;17.37;;;11.43;;
15132;SDS011;7667;51.232;17.110;2024-03-23T04:55:25;18.57;;;11.67;;
15132;SDS011;7667;51.232;17.110;2024-03-23T04:57:52;25.50;;;14.60;;
15132;SDS011;7667;51.232;17.110;2024-03-23T05:00:19;25.27;;;16.13;;
15132;SDS011;7667;51.232;17.110;2024-03-23T05:02:46;30.70;;;17.93;;
15132;SDS011;7667;51.232;17.110;2024-03-23T05:05:12;22.50;;;15.07;;
15132;SDS011;7667;51.232;17.110;2024-03-23T05:07:39;17.90;;;12.10;;
15132;SDS011;7667;51.232;17.110;2024-03-23T05:10:08;18.77;;;12.43;;
15132;SDS011;7667;51.232;17.110;2024-03-23T05:12:40;18.10;;;12.77;;
15132;SDS011;7667;51.232;17.110;2024-03-23T05:15:07;20.43;;;13.30;;
15132;SDS011;7667;51.232;17.110;2024-03-23T05:17:34;19.77;;;12.33;;
15132;SDS011;7667;51.232;17.110;2024-03-23T05:20:01;18.53;;;13.17;;
15132;SDS011;7667;51.232;17.110;2024-03-23T05:22:29;18.23;;;11.87;;
15132;SDS011;7667;51.232;17.110;2024-03-23T05:24:56;21.90;;;12.53;;
15132;SDS011;7667;51.232;17.110;2024-03-23T05:27:23;17.53;;;12.93;;
15132;SDS011;7667;51.232;17.110;2024-03-23T05:29:50;16.07;;;11.67;;
15132;SDS011;7667;51.232;17.110;2024-03-23T05:32:17;18.27;;;13.17;;
15132;SDS011;7667;51.232;17.110;2024-03-23T05:34:44;17.33;;;12.70;;
15132;SDS011;7667;51.232;17.110;2024-03-23T05:37:10;20.60;;;15.20;;
15132;SDS011;7667;51.232;17.110;2024-03-23T05:39:37;23.03;;;16.03;;
15132;SDS011;7667;51.232;17.110;2024-03-23T05:42:04;20.33;;;13.30;;
15132;SDS011;7667;51.232;17.110;2024-03-23T05:44:31;15.33;;;11.30;;
15132;SDS011;7667;51.232;17.110;2024-03-23T05:46:58;20.07;;;12.43;;
15132;SDS011;7667;51.232;17.110;2024-03-23T05:49:25;15.77;;;11.77;;
15132;SDS011;7667;51.232;17.110;2024-03-23T05:51:52;16.70;;;11.53;;
15132;SDS011;7667;51.232;17.110;2024-03-23T05:54:20;15.03;;;10.57;;
15132;SDS011;7667;51.232;17.110;2024-03-23T05:56:47;19.30;;;11.67;;
15132;SDS011;7667;51.232;17.110;2024-03-23T05:59:14;16.87;;;11.20;;
15132;SDS011;7667;51.232;17.110;2024-03-23T06:01:41;18.87;;;11.67;;
15132;SDS011;7667;51.232;17.110;2024-03-23T06:04:08;16.43;;;10.50;;
15132;SDS011;7667;51.232;17.110;2024-03-23T06:06:35;17.27;;;11.27;;
15132;SDS011;7667;51.232;17.110;2024-03-23T06:09:01;17.83;;;11.57;;
15132;SDS011;7667;51.232;17.110;2024-03-23T06:11:28;17.47;;;11.50;;
15132;SDS011;7667;51.232;17.110;2024-03-23T06:13:55;16.30;;;11.77;;
15132;SDS011;7667;51.232;17.110;2024-03-23T06:16:22;18.73;;;12.57;;
15132;SDS011;7667;51.232;17.110;2024-03-23T06:18:50;18.43;;;12.60;;
15132;SDS011;7667;51.232;17.110;2024-03-23T06:21:17;16.80;;;11.63;;
15132;SDS011;7667;51.232;17.110;2024-03-23T06:23:44;19.53;;;12.87;;
15132;SDS011;7667;51.232;17.110;2024-03-23T06:26:17;20.67;;;12.50;;
15132;SDS011;7667;51.232;17.110;2024-03-23T06:28:45;21.30;;;12.63;;
15132;SDS011;7667;51.232;17.110;2024-03-23T06:31:12;16.50;;;11.20;;
15132;SDS011;7667;51.232;17.110;2024-03-23T06:33:39;18.77;;;11.60;;
15132;SDS011;7667;51.232;17.110;2024-03-23T06:36:09;19.47;;;11.67;;
15132;SDS011;7667;51.232;17.110;2024-03-23T06:38:37;22.90;;;11.77;;
15132;SDS011;7667;51.232;17.110;2024-03-23T06:41:04;17.07;;;8.80;;
15132;SDS011;7667;51.232;17.110;2024-03-23T06:43:32;16.10;;;8.87;;
15132;SDS011;7667;51.232;17.110;2024-03-23T06:45:58;14.73;;;8.20;;
15132;SDS011;7667;51.232;17.110;2024-03-23T06:48:26;15.03;;;7.80;;
15132;SDS011;7667;51.232;17.110;2024-03-23T06:50:56;15.07;;;7.97;;
15132;SDS011;7667;51.232;17.110;2024-03-23T06:53:23;15.63;;;8.60;;
15132;SDS011;7667;51.232;17.110;2024-03-23T06:55:51;12.03;;;8.10;;
15132;SDS011;7667;51.232;17.110;2024-03-23T06:58:23;16.50;;;7.93;;
15132;SDS011;7667;51.232;17.110;2024-03-23T07:00:50;15.00;;;9.00;;
15132;SDS011;7667;51.232;17.110;2024-03-23T07:03:17;14.97;;;9.10;;
15132;SDS011;7667;51.232;17.110;2024-03-23T07:05:44;15.13;;;8.00;;
15132;SDS011;7667;51.232;17.110;2024-03-23T07:08:12;16.10;;;8.87;;
15132;SDS011;7667;51.232;17.110;2024-03-23T07:10:44;22.70;;;10.53;;
15132;SDS011;7667;51.232;17.110;2024-03-23T07:13:11;23.33;;;11.13;;
15132;SDS011;7667;51.232;17.110;2024-03-23T07:15:38;17.87;;;12.20;;
15132;SDS011;7667;51.232;17.110;2024-03-23T07:18:04;23.53;;;13.33;;
15132;SDS011;7667;51.232;17.110;2024-03-23T07:20:31;17.07;;;9.17;;
15132;SDS011;7667;51.232;17.110;2024-03-23T07:22:58;13.63;;;8.33;;
15132;SDS011;7667;51.232;17.110;2024-03-23T07:25:25;14.03;;;8.30;;
15132;SDS011;7667;51.232;17.110;2024-03-23T07:27:54;12.53;;;7.53;;
15132;SDS011;7667;51.232;17.110;2024-03-23T07:30:21;15.40;;;9.93;;
15132;SDS011;7667;51.232;17.110;2024-03-23T07:32:48;14.20;;;8.40;;
15132;SDS011;7667;51.232;17.110;2024-03-23T07:35:15;15.33;;;10.80;;
15132;SDS011;7667;51.232;17.110;2024-03-23T07:37:42;15.97;;;8.27;;
15132;SDS011;7667;51.232;17.110;2024-03-23T07:40:09;14.20;;;7.93;;
15132;SDS011;7667;51.232;17.110;2024-03-23T07:42:37;13.73;;;8.40;;
15132;SDS011;7667;51.232;17.110;2024-03-23T07:45:04;12.43;;;7.23;;
15132;SDS011;7667;51.232;17.110;2024-03-23T07:47:31;14.73;;;7.47;;
15132;SDS011;7667;51.232;17.110;2024-03-23T07:49:58;16.30;;;9.30;;
15132;SDS011;7667;51.232;17.110;2024-03-23T07:52:28;17.40;;;9.13;;
15132;SDS011;7667;51.232;17.110;2024-03-23T07:54:55;13.53;;;8.30;;
15132;SDS011;7667;51.232;17.110;2024-03-23T07:57:22;14.23;;;8.37;;
15132;SDS011;7667;51.232;17.110;2024-03-23T07:59:49;15.40;;;9.13;;
15132;SDS011;7667;51.232;17.110;2024-03-23T08:02:17;12.10;;;7.60;;
15132;SDS011;7667;51.232;17.110;2024-03-23T08:04:44;15.20;;;8.83;;
15132;SDS011;7667;51.232;17.110;2024-03-23T08:07:11;15.50;;;10.40;;
15132;SDS011;7667;51.232;17.110;2024-03-23T08:09:38;11.27;;;6.97;;
15132;SDS011;7667;51.232;17.110;2024-03-23T08:12:05;10.80;;;6.43;;
15132;SDS011;7667;51.232;17.110;2024-03-23T08:14:32;11.43;;;6.80;;
15132;SDS011;7667;51.232;17.110;2024-03-23T08:16:58;11.70;;;6.77;;
15132;SDS011;7667;51.232;17.110;2024-03-23T08:19:25;11.37;;;7.00;;
15132;SDS011;7667;51.232;17.110;2024-03-23T08:21:52;11.87;;;7.10;;
15132;SDS011;7667;51.232;17.110;2024-03-23T08:24:20;11.47;;;7.00;;
15132;SDS011;7667;51.232;17.110;2024-03-23T08:26:47;10.83;;;6.60;;
15132;SDS011;7667;51.232;17.110;2024-03-23T08:29:13;11.73;;;6.43;;
15132;SDS011;7667;51.232;17.110;2024-03-23T08:31:40;10.30;;;6.60;;
15132;SDS011;7667;51.232;17.110;2024-03-23T08:34:07;9.97;;;6.20;;
15132;SDS011;7667;51.232;17.110;2024-03-23T08:36:34;11.73;;;7.33;;
15132;SDS011;7667;51.232;17.110;2024-03-23T08:39:01;12.27;;;6.90;;
15132;SDS011;7667;51.232;17.110;2024-03-23T08:41:28;11.03;;;6.73;;
15132;SDS011;7667;51.232;17.110;2024-03-23T08:43:55;8.77;;;5.87;;
15132;SDS011;7667;51.232;17.110;2024-03-23T08:46:22;10.40;;;6.13;;
15132;SDS011;7667;51.232;17.110;2024-03-23T08:48:49;8.17;;;5.53;;
15132;SDS011;7667;51.232;17.110;2024-03-23T08:51:17;10.50;;;6.40;;
15132;SDS011;7667;51.232;17.110;2024-03-23T08:53:45;9.53;;;5.90;;
15132;SDS011;7667;51.232;17.110;2024-03-23T08:56:12;9.60;;;6.07;;
15132;SDS011;7667;51.232;17.110;2024-03-23T08:58:39;9.83;;;6.97;;
15132;SDS011;7667;51.232;17.110;2024-03-23T09:01:06;11.13;;;6.30;;
15132;SDS011;7667;51.232;17.110;2024-03-23T09:03:34;10.27;;;6.23;;
15132;SDS011;7667;51.232;17.110;2024-03-23T09:06:08;11.03;;;6.20;;
15132;SDS011;7667;51.232;17.110;2024-03-23T09:08:39;8.40;;;5.80;;
15132;SDS011;7667;51.232;17.110;2024-03-23T09:11:07;8.77;;;5.90;;
15132;SDS011;7667;51.232;17.110;2024-03-23T09:13:38;8.87;;;5.77;;
15132;SDS011;7667;51.232;17.110;2024-03-23T09:16:07;8.13;;;5.70;;
15132;SDS011;7667;51.232;17.110;2024-03-23T09:18:35;13.10;;;7.63;;
15132;SDS011;7667;51.232;17.110;2024-03-23T09:21:03;11.37;;;6.30;;
15132;SDS011;7667;51.232;17.110;2024-03-23T09:23:36;13.13;;;7.43;;
15132;SDS011;7667;51.232;17.110;2024-03-23T09:26:03;9.83;;;6.63;;
15132;SDS011;7667;51.232;17.110;2024-03-23T09:28:30;12.53;;;7.00;;
15132;SDS011;7667;51.232;17.110;2024-03-23T09:31:07;12.80;;;6.27;;
15132;SDS011;7667;51.232;17.110;2024-03-23T09:33:35;8.80;;;5.83;;
15132;SDS011;7667;51.232;17.110;2024-03-23T09:36:05;9.10;;;5.87;;
15132;SDS011;7667;51.232;17.110;2024-03-23T09:38:33;9.80;;;6.33;;
15132;SDS011;7667;51.232;17.110;2024-03-23T09:41:00;10.13;;;6.20;;
15132;SDS011;7667;51.232;17.110;2024-03-23T09:43:32;10.83;;;5.33;;
15132;SDS011;7667;51.232;17.110;2024-03-23T09:45:59;10.03;;;5.77;;
15132;SDS011;7667;51.232;17.110;2024-03-23T09:48:29;10.03;;;5.57;;
15132;SDS011;7667;51.232;17.110;2024-03-23T09:50:56;9.13;;;5.47;;
15132;SDS011;7667;51.232;17.110;2024-03-23T09:53:24;7.57;;;5.50;;
15132;SDS011;7667;51.232;17.110;2024-03-23T09:55:50;8.60;;;5.70;;
15132;SDS011;7667;51.232;17.110;2024-03-23T09:58:18;8.80;;;5.93;;
15132;SDS011;7667;51.232;17.110;2024-03-23T10:00:45;8.90;;;5.50;;
15132;SDS011;7667;51.232;17.110;2024-03-23T10:03:12;8.43;;;5.40;;
15132;SDS011;7667;51.232;17.110;2024-03-23T10:05:39;14.67;;;8.07;;
15132;SDS011;7667;51.232;17.110;2024-03-23T10:10:40;12.40;;;6.67;;
15132;SDS011;7667;51.232;17.110;2024-03-23T10:13:07;10.77;;;7.47;;
15132;SDS011;7667;51.232;17.110;2024-03-23T10:15:35;11.40;;;7.40;;
15132;SDS011;7667;51.232;17.110;2024-03-23T10:18:20;8.73;;;5.50;;
15132;SDS011;7667;51.232;17.110;2024-03-23T10:23:37;7.20;;;4.83;;
15132;SDS011;7667;51.232;17.110;2024-03-23T10:26:17;8.73;;;5.07;;
15132;SDS011;7667;51.232;17.110;2024-03-23T10:28:51;10.00;;;5.00;;
15132;SDS011;7667;51.232;17.110;2024-03-23T10:31:28;8.53;;;5.40;;
15132;SDS011;7667;51.232;17.110;2024-03-23T10:33:56;9.23;;;5.50;;
15132;SDS011;7667;51.232;17.110;2024-03-23T10:36:23;7.13;;;5.20;;
15132;SDS011;7667;51.232;17.110;2024-03-23T10:38:54;8.40;;;5.00;;
15132;SDS011;7667;51.232;17.110;2024-03-23T10:41:21;9.73;;;6.20;;
15132;SDS011;7667;51.232;17.110;2024-03-23T10:43:48;8.40;;;5.47;;
15132;SDS011;7667;51.232;17.110;2024-03-23T10:46:15;6.23;;;4.93;;
15132;SDS011;7667;51.232;17.110;2024-03-23T10:48:43;9.40;;;5.50;;
15132;SDS011;7667;51.232;17.110;2024-03-23T10:51:10;8.43;;;5.43;;
15132;SDS011;7667;51.232;17.110;2024-03-23T10:53:37;7.87;;;5.53;;
15132;SDS011;7667;51.232;17.110;2024-03-23T10:56:04;8.93;;;5.90;;
15132;SDS011;7667;51.232;17.110;2024-03-23T10:58:37;8.77;;;5.30;;
15132;SDS011;7667;51.232;17.110;2024-03-23T11:01:05;7.20;;;5.27;;
15132;SDS011;7667;51.232;17.110;2024-03-23T11:03:33;8.40;;;6.30;;
15132;SDS011;7667;51.232;17.110;2024-03-23T11:06:04;8.10;;;6.30;;
15132;SDS011;7667;51.232;17.110;2024-03-23T11:08:32;9.43;;;6.57;;
15132;SDS011;7667;51.232;17.110;2024-03-23T11:11:18;7.10;;;5.90;;
15132;SDS011;7667;51.232;17.110;2024-03-23T11:13:53;7.60;;;5.73;;
15132;SDS011;7667;51.232;17.110;2024-03-23T11:16:27;7.77;;;6.23;;
15132;SDS011;7667;51.232;17.110;2024-03-23T11:22:02;8.47;;;6.67;;
15132;SDS011;7667;51.232;17.110;2024-03-23T11:24:30;8.30;;;6.10;;
15132;SDS011;7667;51.232;17.110;2024-03-23T11:26:58;9.40;;;6.30;;
15132;SDS011;7667;51.232;17.110;2024-03-23T11:29:27;8.90;;;6.27;;
15132;SDS011;7667;51.232;17.110;2024-03-23T11:31:55;7.97;;;6.37;;
15132;SDS011;7667;51.232;17.110;2024-03-23T11:34:23;7.93;;;6.07;;
15132;SDS011;7667;51.232;17.110;2024-03-23T11:36:50;9.20;;;6.03;;
15132;SDS011;7667;51.232;17.110;2024-03-23T11:39:32;7.57;;;4.83;;
15132;SDS011;7667;51.232;17.110;2024-03-23T11:41:59;8.13;;;5.93;;
15132;SDS011;7667;51.232;17.110;2024-03-23T11:44:26;7.93;;;5.83;;
15132;SDS011;7667;51.232;17.110;2024-03-23T11:46:53;6.17;;;5.57;;
15132;SDS011;7667;51.232;17.110;2024-03-23T11:49:24;7.77;;;5.60;;
15132;SDS011;7667;51.232;17.110;2024-03-23T11:51:52;8.73;;;5.70;;
15132;SDS011;7667;51.232;17.110;2024-03-23T11:54:21;6.43;;;5.30;;
15132;SDS011;7667;51.232;17.110;2024-03-23T11:56:59;6.60;;;5.63;;
15132;SDS011;7667;51.232;17.110;2024-03-23T12:02:09;9.07;;;6.47;;
15132;SDS011;7667;51.232;17.110;2024-03-23T12:04:37;9.37;;;6.13;;
15132;SDS011;7667;51.232;17.110;2024-03-23T12:07:12;7.90;;;6.37;;
15132;SDS011;7667;51.232;17.110;2024-03-23T12:09:43;7.53;;;5.20;;
15132;SDS011;7667;51.232;17.110;2024-03-23T12:12:15;4.73;;;4.07;;
15132;SDS011;7667;51.232;17.110;2024-03-23T12:15:00;20.40;;;13.30;;
15132;SDS011;7667;51.232;17.110;2024-03-23T12:17:31;11.07;;;6.77;;
15132;SDS011;7667;51.232;17.110;2024-03-23T12:20:00;6.30;;;3.90;;
15132;SDS011;7667;51.232;17.110;2024-03-23T12:22:28;4.27;;;3.83;;
15132;SDS011;7667;51.232;17.110;2024-03-23T12:24:55;4.17;;;3.70;;
15132;SDS011;7667;51.232;17.110;2024-03-23T12:27:22;4.43;;;3.17;;
15132;SDS011;7667;51.232;17.110;2024-03-23T12:29:49;3.77;;;2.77;;
15132;SDS011;7667;51.232;17.110;2024-03-23T12:32:16;3.80;;;2.57;;
15132;SDS011;7667;51.232;17.110;2024-03-23T12:34:44;4.20;;;3.10;;
15132;SDS011;7667;51.232;17.110;2024-03-23T12:37:12;4.30;;;2.70;;
15132;SDS011;7667;51.232;17.110;2024-03-23T12:39:40;3.70;;;2.90;;
15132;SDS011;7667;51.232;17.110;2024-03-23T12:42:06;3.80;;;2.60;;
15132;SDS011;7667;51.232;17.110;2024-03-23T12:44:33;4.23;;;3.23;;
15132;SDS011;7667;51.232;17.110;2024-03-23T12:47:01;4.33;;;3.30;;
15132;SDS011;7667;51.232;17.110;2024-03-23T12:49:27;4.10;;;3.27;;
15132;SDS011;7667;51.232;17.110;2024-03-23T12:51:55;4.73;;;3.03;;
15132;SDS011;7667;51.232;17.110;2024-03-23T12:54:22;4.40;;;3.20;;
15132;SDS011;7667;51.232;17.110;2024-03-23T12:56:50;5.77;;;3.77;;
15132;SDS011;7667;51.232;17.110;2024-03-23T12:59:17;5.00;;;3.60;;
15132;SDS011;7667;51.232;17.110;2024-03-23T13:01:45;6.23;;;4.10;;
15132;SDS011;7667;51.232;17.110;2024-03-23T13:04:13;6.57;;;4.70;;
15132;SDS011;7667;51.232;17.110;2024-03-23T13:06:40;8.23;;;5.07;;
15132;SDS011;7667;51.232;17.110;2024-03-23T13:09:07;5.83;;;3.93;;
15132;SDS011;7667;51.232;17.110;2024-03-23T13:11:34;5.80;;;4.10;;
15132;SDS011;7667;51.232;17.110;2024-03-23T13:14:01;4.73;;;2.97;;
15132;SDS011;7667;51.232;17.110;2024-03-23T13:16:29;3.27;;;2.40;;
15132;SDS011;7667;51.232;17.110;2024-03-23T13:18:57;3.57;;;2.30;;
15132;SDS011;7667;51.232;17.110;2024-03-23T13:21:24;5.60;;;3.03;;
15132;SDS011;7667;51.232;17.110;2024-03-23T13:23:51;4.80;;;2.80;;
15132;SDS011;7667;51.232;17.110;2024-03-23T13:26:18;6.60;;;4.30;;
15132;SDS011;7667;51.232;17.110;2024-03-23T13:28:46;4.60;;;3.30;;
15132;SDS011;7667;51.232;17.110;2024-03-23T13:31:13;5.47;;;4.13;;
15132;SDS011;7667;51.232;17.110;2024-03-23T13:33:40;4.93;;;4.33;;
15132;SDS011;7667;51.232;17.110;2024-03-23T13:36:09;5.97;;;4.80;;
15132;SDS011;7667;51.232;17.110;2024-03-23T13:38:36;7.00;;;4.23;;
15132;SDS011;7667;51.232;17.110;2024-03-23T13:41:03;4.97;;;4.30;;
15132;SDS011;7667;51.232;17.110;2024-03-23T13:43:32;3.70;;;3.20;;
15132;SDS011;7667;51.232;17.110;2024-03-23T13:45:59;3.67;;;3.20;;
15132;SDS011;7667;51.232;17.110;2024-03-23T13:48:27;4.33;;;3.03;;
15132;SDS011;7667;51.232;17.110;2024-03-23T13:50:58;3.40;;;2.53;;
15132;SDS011;7667;51.232;17.110;2024-03-23T13:53:28;3.83;;;3.10;;
15132;SDS011;7667;51.232;17.110;2024-03-23T13:55:55;2.90;;;2.33;;
15132;SDS011;7667;51.232;17.110;2024-03-23T13:58:23;4.37;;;2.50;;
15132;SDS011;7667;51.232;17.110;2024-03-23T14:00:56;3.87;;;2.50;;
15132;SDS011;7667;51.232;17.110;2024-03-23T14:03:23;4.27;;;2.30;;
15132;SDS011;7667;51.232;17.110;2024-03-23T14:05:50;2.10;;;1.80;;
15132;SDS011;7667;51.232;17.110;2024-03-23T14:08:18;2.27;;;1.93;;
15132;SDS011;7667;51.232;17.110;2024-03-23T14:10:47;3.93;;;1.93;;
15132;SDS011;7667;51.232;17.110;2024-03-23T14:13:14;3.07;;;2.17;;
15132;SDS011;7667;51.232;17.110;2024-03-23T14:15:41;2.20;;;1.57;;
15132;SDS011;7667;51.232;17.110;2024-03-23T14:18:08;2.07;;;1.83;;
15132;SDS011;7667;51.232;17.110;2024-03-23T14:20:35;1.87;;;1.50;;
15132;SDS011;7667;51.232;17.110;2024-03-23T14:23:02;1.27;;;1.10;;
15132;SDS011;7667;51.232;17.110;2024-03-23T14:25:29;0.90;;;0.90;;
15132;SDS011;7667;51.232;17.110;2024-03-23T14:27:56;1.00;;;0.90;;
15132;SDS011;7667;51.232;17.110;2024-03-23T14:30:23;0.73;;;0.70;;
15132;SDS011;7667;51.232;17.110;2024-03-23T14:32:50;0.83;;;0.67;;
15132;SDS011;7667;51.232;17.110;2024-03-23T14:35:17;0.60;;;0.60;;
15132;SDS011;7667;51.232;17.110;2024-03-23T14:37:44;1.47;;;0.83;;
15132;SDS011;7667;51.232;17.110;2024-03-23T14:40:12;0.80;;;0.80;;
15132;SDS011;7667;51.232;17.110;2024-03-23T14:42:39;1.00;;;1.00;;
15132;SDS011;7667;51.232;17.110;2024-03-23T14:45:07;1.03;;;1.00;;
15132;SDS011;7667;51.232;17.110;2024-03-23T14:47:34;1.50;;;1.40;;
15132;SDS011;7667;51.232;17.110;2024-03-23T14:50:01;1.97;;;1.87;;
15132;SDS011;7667;51.232;17.110;2024-03-23T14:52:28;1.90;;;1.80;;
15132;SDS011;7667;51.232;17.110;2024-03-23T14:54:55;1.30;;;1.20;;
15132;SDS011;7667;51.232;17.110;2024-03-23T14:57:22;1.27;;;0.70;;
15132;SDS011;7667;51.232;17.110;2024-03-23T14:59:55;1.40;;;1.00;;
15132;SDS011;7667;51.232;17.110;2024-03-23T15:02:22;0.60;;;0.60;;
15132;SDS011;7667;51.232;17.110;2024-03-23T15:04:50;0.70;;;0.70;;
15132;SDS011;7667;51.232;17.110;2024-03-23T15:07:18;0.60;;;0.60;;
15132;SDS011;7667;51.232;17.110;2024-03-23T15:09:50;1.17;;;0.73;;
15132;SDS011;7667;51.232;17.110;2024-03-23T15:12:19;2.13;;;0.70;;
15132;SDS011;7667;51.232;17.110;2024-03-23T15:14:47;4.67;;;1.90;;
15132;SDS011;7667;51.232;17.110;2024-03-23T15:17:14;0.73;;;0.53;;
15132;SDS011;7667;51.232;17.110;2024-03-23T15:19:41;0.50;;;0.50;;
15132;SDS011;7667;51.232;17.110;2024-03-23T15:22:08;0.67;;;0.60;;
15132;SDS011;7667;51.232;17.110;2024-03-23T15:24:35;0.50;;;0.50;;
15132;SDS011;7667;51.232;17.110;2024-03-23T15:27:03;0.73;;;0.60;;
15132;SDS011;7667;51.232;17.110;2024-03-23T15:29:30;0.70;;;0.70;;
15132;SDS011;7667;51.232;17.110;2024-03-23T15:31:57;1.87;;;1.17;;
15132;SDS011;7667;51.232;17.110;2024-03-23T15:34:24;1.63;;;1.30;;
15132;SDS011;7667;51.232;17.110;2024-03-23T15:36:51;4.60;;;3.00;;
15132;SDS011;7667;51.232;17.110;2024-03-23T15:39:19;1.77;;;1.20;;
15132;SDS011;7667;51.232;17.110;2024-03-23T15:41:48;1.10;;;1.00;;
15132;SDS011;7667;51.232;17.110;2024-03-23T15:44:15;1.10;;;1.00;;